Time;durP1;ratioP1;P1;durP2;ratioP2;P2;SDS_P1;SDS_P2;PMS_P1;PMS_P2;Temp;Humidity;BMP_temperature;BMP_pressure;BME280_temperature;BME280_humidity;BME280_pressure;Samples;Min_cycle;Max_cycle;Signal;HPM_P1;HPM_P2
2022/06/09 00:01:28;;;;;;;1.27;1.20;;;;;;;12.78;93.87;100769.84;6216982;23;20005;-87
2022/06/09 00:04:02;;;;;;;;;;;;;;;12.77;94.61;100776.81;6216758;23;20009;-86
2022/06/09 00:06:34;;;;;;;3.20;1.67;;;;;;;12.75;94.69;100776.00;6216958;23;19919;-89
2022/06/09 00:09:04;;;;;;;2.50;1.80;;;;;;;12.76;94.06;100779.47;6216837;23;20020;-88
2022/06/09 00:11:33;;;;;;;1.38;1.20;;;;;;;12.79;93.95;100787.19;6216524;23;20020;-89
2022/06/09 00:13:58;;;;;;;4.07;1.65;;;;;;;12.77;94.33;100779.44;6217399;23;20008;-88
2022/06/09 00:16:24;;;;;;;3.33;1.80;;;;;;;12.77;95.01;100787.25;6217042;23;20005;-87
2022/06/09 00:18:49;;;;;;;3.33;1.70;;;;;;;12.78;93.75;100788.94;6215981;23;20015;-87
2022/06/09 00:21:14;;;;;;;3.47;1.90;;;;;;;12.76;94.58;100788.13;6217259;23;20087;-87
2022/06/09 00:23:40;;;;;;;1.97;1.77;;;;;;;12.75;95.21;100788.19;6215657;23;20421;-87
2022/06/09 00:26:05;;;;;;;2.03;1.67;;;;;;;12.72;95.03;100783.03;6216616;23;20001;-86
2022/06/09 00:28:30;;;;;;;2.23;1.63;;;;;;;12.69;94.79;100781.38;6216705;23;20072;-87
2022/06/09 00:30:56;;;;;;;1.83;1.50;;;;;;;12.71;95.36;100782.19;6216021;23;20004;-87
2022/06/09 00:33:21;;;;;;;1.93;1.67;;;;;;;12.72;94.57;100785.66;6217096;23;20059;-87
2022/06/09 00:35:47;;;;;;;1.53;1.40;;;;;;;12.72;94.31;100791.69;6217068;23;20075;-87
2022/06/09 00:38:12;;;;;;;2.70;1.80;;;;;;;12.72;94.87;100786.47;6215456;23;20007;-87
2022/06/09 00:40:38;;;;;;;3.43;1.87;;;;;;;12.72;95.67;100789.09;6216412;23;20036;-87
2022/06/09 00:43:06;;;;;;;2.53;1.87;;;;;;;12.72;95.04;100791.69;6216565;23;20004;-87
2022/06/09 00:45:36;;;;;;;1.92;1.50;;;;;;;12.72;94.74;100790.84;6215922;23;20028;-88
2022/06/09 00:48:16;;;;;;;2.35;1.65;;;;;;;12.71;94.88;100800.44;6216192;23;20004;-87
2022/06/09 00:50:43;;;;;;;2.67;1.65;;;;;;;12.70;94.54;100797.84;6216972;23;20315;-87
2022/06/09 00:53:16;;;;;;;1.45;1.35;;;;;;;12.70;94.32;100798.72;6216181;23;20028;-87
2022/06/09 00:55:43;;;;;;;3.42;1.52;;;;;;;12.66;94.76;100799.66;6216565;23;20015;-87
2022/06/09 00:58:12;;;;;;;2.25;1.80;;;;;;;12.64;94.69;100810.13;6216465;23;20004;-87
2022/06/09 01:01:03;;;;;;;2.78;1.70;;;;;;;12.60;94.58;100800.69;6215401;23;20369;-86
2022/06/09 01:03:42;;;;;;;1.63;1.50;;;;;;;12.59;94.25;100801.56;6216832;23;20015;-88
2022/06/09 01:06:12;;;;;;;1.50;1.40;;;;;;;12.57;94.30;100797.31;6215593;23;20491;-87
2022/06/09 01:08:47;;;;;;;1.40;1.30;;;;;;;12.57;94.42;100794.69;6215585;23;20059;-86
2022/06/09 01:11:12;;;;;;;1.00;1.00;;;;;;;12.54;94.49;100799.97;6216100;23;20043;-87
2022/06/09 01:13:37;;;;;;;1.70;1.30;;;;;;;12.54;94.25;100794.75;6215621;23;20005;-87
2022/06/09 01:16:18;;;;;;;0.93;0.93;;;;;;;12.52;94.09;100800.84;6216603;23;20084;-87
2022/06/09 01:18:48;;;;;;;0.80;0.80;;;;;;;12.51;94.17;100801.75;6215363;23;20004;-87
2022/06/09 01:21:39;;;;;;;7.78;2.53;;;;;;;12.48;94.84;100800.97;6215841;23;20004;-87
2022/06/09 01:24:46;;;;;;;2.47;1.80;;;;;;;12.47;94.72;100799.25;6216629;23;20004;-87
2022/06/09 01:27:17;;;;;;;3.05;1.80;;;;;;;12.45;95.19;100804.50;6215410;23;20005;-87
2022/06/09 01:29:55;;;;;;;3.08;1.90;;;;;;;12.44;94.81;100807.16;6216384;23;20051;-88
2022/06/09 01:32:27;;;;;;;1.58;1.48;;;;;;;12.43;94.83;100811.50;6216551;23;20318;-87
2022/06/09 01:35:01;;;;;;;4.50;1.90;;;;;;;12.43;94.97;100810.66;6214743;23;20001;-87
2022/06/09 01:37:36;;;;;;;2.08;1.60;;;;;;;12.41;94.99;100808.06;6216702;23;20040;-88
2022/06/09 01:40:04;;;;;;;4.40;1.80;;;;;;;12.41;95.39;100805.47;6216278;23;20036;-88
2022/06/09 01:42:39;;;;;;;3.63;1.98;;;;;;;12.42;95.27;100819.34;6214859;23;20409;-87
2022/06/09 01:45:12;;;;;;;4.65;2.03;;;;;;;12.40;95.68;100816.75;6216072;23;20001;-87
2022/06/09 01:47:50;;;;;;;2.65;1.73;;;;;;;12.41;95.10;100823.69;6217324;23;20009;-86
2022/06/09 01:50:31;;;;;;;1.85;1.50;;;;;;;12.43;95.57;100821.06;6216032;23;20422;-88
2022/06/09 01:52:59;;;;;;;2.75;1.45;;;;;;;12.43;95.53;100821.91;6216193;23;20054;-87
2022/06/09 01:55:26;;;;;;;2.45;1.52;;;;;;;12.44;95.17;100828.81;6215349;23;20008;-87
2022/06/09 01:57:57;;;;;;;2.92;1.70;;;;;;;12.43;95.23;100829.72;6215990;23;20071;-86
2022/06/09 02:00:23;;;;;;;2.65;1.98;;;;;;;12.41;95.49;100831.50;6216288;23;20004;-88
2022/06/09 02:02:54;;;;;;;7.10;2.28;;;;;;;12.41;95.93;100833.25;6214837;23;20055;-87
2022/06/09 02:05:26;;;;;;;2.10;1.67;;;;;;;12.40;95.25;100832.38;6216151;23;20055;-88
2022/06/09 02:08:00;;;;;;;2.95;1.60;;;;;;;12.39;95.20;100833.25;6215750;23;20004;-87
2022/06/09 02:10:34;;;;;;;2.95;1.88;;;;;;;12.37;95.56;100827.25;6215017;23;20055;-87
2022/06/09 02:13:05;;;;;;;2.80;1.73;;;;;;;12.34;95.03;100829.94;6215597;23;20321;-87
2022/06/09 02:15:36;;;;;;;3.92;1.60;;;;;;;12.34;95.46;100832.53;6216123;23;20000;-87
2022/06/09 02:18:12;;;;;;;2.80;1.80;;;;;;;12.33;95.29;100834.25;6214882;23;20087;-87
2022/06/09 02:21:00;;;;;;;3.92;1.80;;;;;;;12.32;95.46;100842.13;6215630;23;20361;-86
2022/06/09 02:23:26;;;;;;;3.35;2.10;;;;;;;12.29;96.28;100840.44;6214060;23;20023;-87
2022/06/09 02:25:51;;;;;;;3.23;2.13;;;;;;;12.28;95.70;100849.13;6215430;23;20005;-87
2022/06/09 02:28:16;;;;;;;4.63;2.30;;;;;;;12.26;96.27;100844.88;6215966;23;19997;-88
2022/06/09 02:30:45;;;;;;;5.60;2.13;;;;;;;12.30;95.77;100862.09;6215084;23;20331;-87
2022/06/09 02:33:11;;;;;;;2.13;1.63;;;;;;;12.30;95.65;100862.09;6215992;23;20008;-87
2022/06/09 02:35:37;;;;;;;1.73;1.60;;;;;;;12.31;95.90;100861.22;6215110;23;20008;-88
2022/06/09 02:38:03;;;;;;;1.90;1.70;;;;;;;12.29;95.80;100856.06;6214982;23;20088;-88
2022/06/09 02:40:29;;;;;;;3.33;2.30;;;;;;;12.27;96.09;100859.59;6215782;23;20017;-87
2022/06/09 02:42:55;;;;;;;5.40;2.33;;;;;;;12.29;95.75;100869.06;6215515;23;20005;-86
2022/06/09 02:45:22;;;;;;;2.50;1.90;;;;;;;12.29;95.55;100869.06;6214829;23;20001;-87
2022/06/09 02:47:47;;;;;;;6.90;2.40;;;;;;;12.28;95.85;100872.56;6215064;23;20031;-88
2022/06/09 02:50:13;;;;;;;4.20;2.30;;;;;;;12.29;96.23;100873.41;6215837;23;20005;-87
2022/06/09 02:52:39;;;;;;;8.80;2.70;;;;;;;12.28;96.39;100876.91;6214070;23;20077;-87
2022/06/09 02:55:04;;;;;;;4.33;2.40;;;;;;;12.27;96.01;100878.66;6215567;23;20005;-87
2022/06/09 02:57:30;;;;;;;4.80;2.60;;;;;;;12.28;96.73;100880.38;6214752;23;20005;-87
2022/06/09 02:59:56;;;;;;;5.10;2.67;;;;;;;12.25;96.44;100884.78;6214074;23;20307;-87
2022/06/09 03:02:22;;;;;;;3.47;2.60;;;;;;;12.24;96.44;100875.25;6215201;23;20004;-86
2022/06/09 03:04:47;;;;;;;6.00;2.70;;;;;;;12.24;96.86;100883.06;6215156;23;20444;-87
2022/06/09 03:07:13;;;;;;;4.63;2.40;;;;;;;12.24;96.03;100894.31;6214466;23;20076;-87
2022/06/09 03:09:39;;;;;;;8.27;2.97;;;;;;;12.23;97.56;100891.78;6214714;23;20044;-87
2022/06/09 03:12:05;;;;;;;5.43;2.78;;;;;;;12.24;96.30;100898.69;6215520;23;20058;-88
2022/06/09 03:14:31;;;;;;;5.17;2.30;;;;;;;12.24;95.96;100902.13;6214145;23;20009;-88
2022/06/09 03:16:56;;;;;;;3.57;2.20;;;;;;;12.26;95.99;100902.13;6214886;23;20322;-86
2022/06/09 03:19:22;;;;;;;2.63;2.10;;;;;;;12.24;96.28;100903.88;6215098;23;20008;-87
2022/06/09 03:21:47;;;;;;;2.37;1.80;;;;;;;12.23;95.58;100904.78;6213907;23;20004;-87
2022/06/09 03:24:13;;;;;;;7.17;2.70;;;;;;;12.25;96.76;100916.84;6215225;23;20410;-86
2022/06/09 03:26:38;;;;;;;5.77;2.80;;;;;;;12.26;96.97;100925.53;6214288;23;20028;-87
2022/06/09 03:29:03;;;;;;;5.47;2.43;;;;;;;12.26;96.29;100928.97;6215252;23;20024;-87
2022/06/09 03:31:29;;;;;;;3.10;2.20;;;;;;;12.28;96.56;100928.94;6215192;23;20004;-87
2022/06/09 03:33:54;;;;;;;7.33;3.10;;;;;;;12.25;96.87;100929.03;6213957;23;20027;-87
2022/06/09 03:36:19;;;;;;;6.27;2.67;;;;;;;12.23;96.97;100920.38;6215249;23;20032;-87
2022/06/09 03:38:45;;;;;;;7.03;2.60;;;;;;;12.25;96.20;100929.03;6214370;23;20004;-87
2022/06/09 03:41:10;;;;;;;3.43;2.17;;;;;;;12.25;95.83;100937.69;6214513;23;20000;-88
2022/06/09 03:43:36;;;;;;;4.70;2.77;;;;;;;12.24;97.16;100948.13;6215430;23;20445;-87
2022/06/09 03:46:02;;;;;;;5.03;2.60;;;;;;;12.23;96.75;100951.63;6214917;23;20008;-87
2022/06/09 03:48:28;;;;;;;6.20;2.35;;;;;;;12.19;96.48;100954.28;6213932;23;20339;-87
2022/06/09 03:50:53;;;;;;;4.68;2.30;;;;;;;12.18;96.33;100959.50;6214738;23;20001;-87
2022/06/09 03:53:19;;;;;;;6.70;2.90;;;;;;;12.16;96.83;100950.88;6215388;23;20062;-87
2022/06/09 03:55:44;;;;;;;5.83;2.87;;;;;;;12.11;96.33;100952.69;6213991;23;20364;-87
2022/06/09 03:58:10;;;;;;;4.77;2.57;;;;;;;12.12;96.19;100963.09;6215340;23;20544;-86
2022/06/09 04:00:35;;;;;;;4.17;2.40;;;;;;;12.09;96.32;100959.69;6215065;23;20012;-88
2022/06/09 04:03:01;;;;;;;2.13;1.80;;;;;;;12.11;95.60;100974.38;6213230;23;20036;-87
2022/06/09 04:05:27;;;;;;;2.13;1.70;;;;;;;12.10;95.70;100971.81;6215257;23;20039;-87
2022/06/09 04:07:53;;;;;;;2.17;1.70;;;;;;;12.10;95.44;100977.03;6214717;23;20008;-87
2022/06/09 04:10:23;;;;;;;1.50;1.40;;;;;;;12.10;95.49;100984.84;6214418;23;20004;-86
2022/06/09 04:12:49;;;;;;;2.05;1.48;;;;;;;12.09;95.46;100988.31;6214913;23;20376;-86
2022/06/09 04:15:15;;;;;;;2.97;1.90;;;;;;;12.06;95.75;100984.00;6215051;23;20004;-87
2022/06/09 04:17:41;;;;;;;2.35;1.90;;;;;;;12.04;95.71;100986.66;6213790;23;20422;-87
2022/06/09 04:20:07;;;;;;;4.43;2.13;;;;;;;12.04;95.61;100993.63;6214555;23;20011;-87
2022/06/09 04:22:33;;;;;;;4.53;2.03;;;;;;;12.04;95.45;100993.63;6214448;23;20011;-87
2022/06/09 04:24:59;;;;;;;3.20;2.00;;;;;;;12.02;95.79;100988.41;6213743;23;20003;-86
2022/06/09 04:27:24;;;;;;;6.00;2.50;;;;;;;12.02;96.16;100997.97;6215141;23;20388;-87
2022/06/09 04:29:50;;;;;;;3.50;2.00;;;;;;;12.02;95.71;100996.22;6214088;23;19997;-86
2022/06/09 04:32:15;;;;;;;4.27;2.00;;;;;;;12.04;95.76;100994.44;6215157;23;20005;-87
2022/06/09 04:34:42;;;;;;;2.30;1.80;;;;;;;12.05;96.10;100997.91;6214481;23;20008;-86
2022/06/09 04:37:07;;;;;;;;;;;;;;;12.06;95.50;101002.22;6214379;23;20601;-86
2022/06/09 04:39:32;;;;;;;1.93;1.63;;;;;;;12.08;95.67;101008.25;6214364;23;19943;-87
2022/06/09 04:41:58;;;;;;;2.17;1.70;;;;;;;12.09;95.32;101007.38;6214305;23;20004;-87
2022/06/09 04:44:23;;;;;;;4.90;1.80;;;;;;;12.10;95.74;101005.66;6214104;23;20361;-88
2022/06/09 04:46:48;;;;;;;2.13;1.80;;;;;;;12.12;95.69;101004.72;6216642;23;20017;-87
2022/06/09 04:49:13;;;;;;;3.20;2.10;;;;;;;12.16;96.23;101013.31;6216740;23;20037;-88
2022/06/09 04:51:39;;;;;;;2.37;1.90;;;;;;;12.18;95.52;101017.59;6215201;23;20008;-87
2022/06/09 04:54:04;;;;;;;1.63;1.53;;;;;;;12.22;95.80;101028.81;6216785;23;20044;-87
2022/06/09 04:56:29;;;;;;;3.40;1.87;;;;;;;12.25;96.00;101020.94;6216833;23;20008;-87
2022/06/09 04:58:55;;;;;;;3.00;1.73;;;;;;;12.29;95.70;101027.81;6215088;23;20008;-87
2022/06/09 05:01:24;;;;;;;2.30;2.00;;;;;;;12.33;96.54;101033.81;6216883;23;20003;-87
2022/06/09 05:03:50;;;;;;;3.63;1.90;;;;;;;12.35;95.98;101043.28;6215392;23;20016;-87
2022/06/09 05:06:18;;;;;;;4.03;1.90;;;;;;;12.40;95.99;101045.81;6215637;23;20054;-86
2022/06/09 05:08:43;;;;;;;2.00;1.80;;;;;;;12.43;95.84;101050.97;6214035;23;20043;-87
2022/06/09 05:11:09;;;;;;;3.70;2.03;;;;;;;12.41;95.67;101041.47;6215240;23;20008;-88
2022/06/09 05:13:34;;;;;;;2.20;2.00;;;;;;;12.50;96.13;101060.34;6215762;23;20035;-87
2022/06/09 05:16:00;;;;;;;2.63;1.60;;;;;;;12.60;96.06;101065.41;6216276;23;19997;-87
2022/06/09 05:18:28;;;;;;;2.17;1.97;;;;;;;12.70;96.31;101076.47;6216195;23;20092;-87
2022/06/09 05:20:55;;;;;;;5.72;2.20;;;;;;;12.74;96.20;101075.53;6215047;23;20005;-88
2022/06/09 05:23:20;;;;;;;;;;;;;;;12.80;95.47;101081.47;6216709;23;20004;-87
2022/06/09 05:25:47;;;;;;;4.77;2.53;;;;;;;12.85;96.30;101083.97;6216350;23;19919;-87
2022/06/09 05:28:12;;;;;;;6.45;2.50;;;;;;;12.89;96.13;101083.00;6215452;23;20009;-87
2022/06/09 05:30:37;;;;;;;5.43;2.40;;;;;;;12.94;96.31;101078.56;6215331;23;20494;-86
2022/06/09 05:33:03;;;;;;;3.47;2.27;;;;;;;13.05;95.73;101086.16;6215946;23;20079;-85
2022/06/09 05:35:28;;;;;;;2.43;2.10;;;;;;;13.15;95.75;101086.78;6215744;23;20004;-87
2022/06/09 05:46:07;;;;;;;2.83;2.20;;;;;;;13.46;95.37;101103.53;6216048;23;20031;-91
2022/06/09 05:48:33;;;;;;;2.13;1.80;;;;;;;13.50;95.23;101113.00;6215971;23;20036;-88
2022/06/09 05:50:59;;;;;;;1.77;1.63;;;;;;;13.52;95.12;101112.06;6216125;23;20023;-88
2022/06/09 05:53:24;;;;;;;3.08;1.70;;;;;;;13.58;95.30;101117.13;6216058;23;20008;-90
2022/06/09 05:55:49;;;;;;;5.80;2.30;;;;;;;13.66;96.07;101121.31;6214544;23;20000;-80
2022/06/09 05:58:15;;;;;;;4.90;2.50;;;;;;;13.73;95.42;101120.28;6215399;23;20000;-81
2022/06/09 06:00:47;;;;;;;5.13;2.13;;;;;;;13.82;94.67;101127.03;6214937;23;20043;-81
2022/06/09 06:03:14;;;;;;;2.63;2.13;;;;;;;14.00;95.51;101138.78;6213436;23;20074;-82
2022/06/09 06:08:25;;;;;;;3.17;1.80;;;;;;;14.77;96.06;101136.75;6214483;23;20028;-82
2022/06/09 06:10:50;;;;;;;;;;;;;;;16.45;95.92;101142.84;6215892;23;20009;-83
2022/06/09 06:13:16;;;;;;;5.43;2.27;;;;;;;17.76;90.29;101146.72;6215414;23;20277;-82
2022/06/09 06:15:41;;;;;;;3.10;2.20;;;;;;;18.09;89.54;101154.16;6214614;23;20008;-83
2022/06/09 06:18:07;;;;;;;4.90;2.30;;;;;;;18.27;85.00;101149.91;6216058;23;20088;-84
2022/06/09 06:20:34;;;;;;;4.37;2.30;;;;;;;18.14;82.80;101156.59;6216203;23;20013;-83
2022/06/09 06:22:59;;;;;;;5.32;2.50;;;;;;;17.75;81.40;101164.25;6213887;23;20013;-83
2022/06/09 06:25:25;;;;;;;2.67;2.10;;;;;;;17.38;85.04;101164.88;6214204;23;20077;-83
2022/06/09 06:27:51;;;;;;;5.25;2.17;;;;;;;17.05;85.13;101166.09;6214251;23;20000;-85
2022/06/09 06:30:18;;;;;;;2.77;2.00;;;;;;;16.75;84.58;101178.50;6214987;23;20066;-84
2022/06/09 06:32:45;;;;;;;;;;;;;;;16.46;85.46;101173.38;6215959;23;20004;-85
2022/06/09 06:35:11;;;;;;;2.58;1.70;;;;;;;16.24;85.58;101182.88;6215867;23;19954;-85
2022/06/09 06:37:37;;;;;;;3.70;2.13;;;;;;;15.98;85.34;101190.69;6214826;23;20027;-85
2022/06/09 06:40:02;;;;;;;3.70;1.90;;;;;;;15.80;86.35;101181.63;6215325;23;20039;-85
2022/06/09 06:42:28;;;;;;;3.33;1.70;;;;;;;15.68;86.67;101192.50;6215918;23;20028;-85
2022/06/09 06:44:53;;;;;;;2.53;1.87;;;;;;;15.54;86.92;101188.53;6214591;23;20032;-86
2022/06/09 06:47:18;;;;;;;3.53;1.93;;;;;;;15.47;87.44;101200.09;6215073;23;20004;-85
2022/06/09 06:49:43;;;;;;;2.10;1.80;;;;;;;15.40;87.14;101203.81;6214898;23;20004;-84
2022/06/09 06:52:09;;;;;;;5.53;2.10;;;;;;;15.32;87.60;101209.25;6214388;23;20011;-84
2022/06/09 06:54:34;;;;;;;1.80;1.60;;;;;;;15.26;88.18;101212.91;6214800;23;20028;-85
2022/06/09 06:57:00;;;;;;;3.17;2.07;;;;;;;15.13;87.69;101222.00;6214682;23;20468;-85
2022/06/09 06:59:25;;;;;;;3.27;2.00;;;;;;;15.09;88.49;101220.34;6214639;23;20009;-86
2022/06/09 07:01:50;;;;;;;4.13;1.80;;;;;;;15.03;88.69;101218.78;6213031;23;20410;-84
2022/06/09 07:04:16;;;;;;;2.80;1.87;;;;;;;15.00;88.58;101223.25;6216036;23;20016;-85
2022/06/09 07:06:41;;;;;;;1.67;1.50;;;;;;;14.96;88.77;101220.72;6214147;23;20469;-85
2022/06/09 07:09:07;;;;;;;1.97;1.70;;;;;;;14.95;89.08;101232.09;6214432;23;20517;-85
2022/06/09 07:11:32;;;;;;;3.27;1.97;;;;;;;14.95;89.09;101234.69;6214627;23;20009;-84
2022/06/09 07:13:58;;;;;;;3.47;2.20;;;;;;;14.92;88.70;101240.00;6214714;23;20031;-84
2022/06/09 07:16:23;;;;;;;2.77;1.80;;;;;;;14.90;89.12;101246.19;6215088;23;20008;-84
2022/06/09 07:18:48;;;;;;;2.00;1.70;;;;;;;14.91;88.73;101251.34;6214148;23;20099;-85
2022/06/09 07:21:15;;;;;;;2.70;1.70;;;;;;;14.96;89.50;101249.47;6214525;23;20020;-85
2022/06/09 07:23:40;;;;;;;1.73;1.60;;;;;;;15.00;89.50;101246.75;6214702;23;20005;-84
2022/06/09 07:26:06;;;;;;;2.10;1.40;;;;;;;15.05;89.31;101250.97;6214469;23;20361;-84
2022/06/09 07:28:32;;;;;;;1.73;1.63;;;;;;;15.05;88.92;101261.41;6214585;23;20005;-85
2022/06/09 07:30:59;;;;;;;4.10;2.17;;;;;;;15.07;88.97;101264.00;6214504;23;20013;-85
2022/06/09 07:33:27;;;;;;;2.95;2.28;;;;;;;15.11;88.99;101257.78;6214242;23;20004;-85
2022/06/09 07:35:54;;;;;;;2.92;1.83;;;;;;;15.14;88.70;101260.31;6215011;23;20000;-85
2022/06/09 07:38:20;;;;;;;2.17;1.85;;;;;;;15.22;88.82;101267.94;6215498;23;20031;-85
2022/06/09 07:40:51;;;;;;;3.33;2.05;;;;;;;15.28;88.03;101265.16;6213284;23;20430;-85
2022/06/09 07:43:17;;;;;;;4.82;2.90;;;;;;;15.39;87.85;101264.84;6215133;23;20005;-85
2022/06/09 07:45:43;;;;;;;3.60;2.53;;;;;;;15.53;88.39;101269.69;6214998;23;20018;-85
2022/06/09 07:48:09;;;;;;;3.03;2.50;;;;;;;15.71;88.36;101268.28;6213850;23;20071;-85
2022/06/09 07:50:34;;;;;;;4.05;2.85;;;;;;;15.99;86.87;101268.31;6215476;23;20004;-85
2022/06/09 07:53:00;;;;;;;2.90;2.50;;;;;;;16.34;87.06;101265.47;6214056;23;19996;-85
2022/06/09 07:55:26;;;;;;;2.77;2.40;;;;;;;16.71;85.76;101261.63;6214190;23;20326;-85
2022/06/09 07:57:52;;;;;;;2.00;1.90;;;;;;;17.02;86.48;101265.81;6214690;23;20001;-85
2022/06/09 08:00:19;;;;;;;2.00;1.90;;;;;;;17.30;85.96;101275.31;6214978;23;20004;-85
2022/06/09 08:02:45;;;;;;;2.10;1.90;;;;;;;17.64;80.00;101268.81;6213566;23;20000;-86
2022/06/09 08:05:12;;;;;;;2.20;1.60;;;;;;;17.80;81.79;101276.09;6214876;23;20004;-85
2022/06/09 08:07:38;;;;;;;1.60;1.50;;;;;;;17.83;82.78;101282.09;6215008;23;20262;-85
2022/06/09 08:10:05;;;;;;;1.93;1.37;;;;;;;17.93;81.64;101292.22;6213611;23;20465;-86
2022/06/09 08:12:31;;;;;;;1.35;1.30;;;;;;;18.00;83.14;101284.09;6215046;23;20386;-86
2022/06/09 08:14:57;;;;;;;1.10;1.00;;;;;;;18.13;83.08;101287.06;6213774;23;20008;-86
2022/06/09 08:17:22;;;;;;;1.00;1.00;;;;;;;18.20;81.04;101288.53;6215272;23;20110;-86
2022/06/09 08:19:48;;;;;;;0.90;0.90;;;;;;;18.23;81.23;101292.81;6215086;23;20075;-85
2022/06/09 08:22:15;;;;;;;1.08;0.98;;;;;;;18.20;77.37;101295.56;6215937;23;20701;-85
2022/06/09 08:24:40;;;;;;;1.17;1.08;;;;;;;18.12;79.59;101305.53;6216342;23;20000;-84
2022/06/09 08:27:06;;;;;;;0.90;0.90;;;;;;;18.07;79.95;101316.19;6216893;23;20103;-86
2022/06/09 08:29:31;;;;;;;0.80;0.80;;;;;;;18.09;77.10;101316.16;6215776;23;20001;-82
2022/06/09 08:31:57;;;;;;;1.37;1.10;;;;;;;18.12;77.57;101316.03;6216635;23;20112;-81
2022/06/09 08:34:23;;;;;;;1.00;0.90;;;;;;;18.25;79.33;101319.03;6216819;23;20080;-82
2022/06/09 08:36:48;;;;;;;0.82;0.82;;;;;;;18.52;78.14;101324.94;6215731;23;19996;-82
2022/06/09 08:39:14;;;;;;;0.83;0.83;;;;;;;18.71;78.90;101327.66;6216810;23;20018;-81
2022/06/09 08:41:50;;;;;;;1.17;1.10;;;;;;;18.79;76.32;101332.59;6216558;23;20011;-81
2022/06/09 08:44:23;;;;;;;3.17;1.58;;;;;;;18.66;73.42;101334.88;6215598;23;20406;-82
2022/06/09 08:46:53;;;;;;;1.33;1.20;;;;;;;18.52;77.02;101338.91;6216401;23;20001;-81
2022/06/09 08:49:29;;;;;;;2.05;1.20;;;;;;;18.33;72.38;101349.34;6215971;23;20005;-82
2022/06/09 08:52:00;;;;;;;1.17;0.90;;;;;;;18.14;75.40;101356.22;6215236;23;20489;-82
2022/06/09 08:54:36;;;;;;;2.10;1.05;;;;;;;18.03;72.43;101360.09;6216911;23;20001;-82
2022/06/09 08:57:12;;;;;;;2.38;1.17;;;;;;;17.99;76.11;101357.66;6216200;23;20008;-80
2022/06/09 08:59:40;;;;;;;0.73;0.73;;;;;;;17.93;74.12;101363.97;6216231;23;20009;-81
2022/06/09 09:02:32;;;;;;;1.08;0.90;;;;;;;17.82;74.88;101359.16;6216335;23;20009;-80
2022/06/09 09:05:23;;;;;;;3.63;1.38;;;;;;;17.45;67.36;101363.13;6208212;23;20008;-81
2022/06/09 09:07:51;;;;;;;1.52;1.42;;;;;;;17.22;71.97;101374.44;6215724;23;20009;-80
2022/06/09 09:10:40;;;;;;;2.65;1.10;;;;;;;17.12;72.19;101372.09;6216739;23;20370;-80
2022/06/09 09:13:30;;;;;;;1.33;1.20;;;;;;;17.13;75.02;101375.59;6215321;23;20011;-80
2022/06/09 09:16:01;;;;;;;1.20;1.10;;;;;;;17.10;74.28;101375.69;6216266;23;20001;-80
2022/06/09 09:18:44;;;;;;;2.10;1.50;;;;;;;17.09;75.44;101380.09;6214954;23;20028;-80
2022/06/09 09:21:31;;;;;;;1.40;1.30;;;;;;;17.13;75.47;101383.47;6216345;23;20373;-81
2022/06/09 09:24:11;;;;;;;1.85;1.40;;;;;;;17.14;75.21;101386.03;6215898;23;20004;-81
2022/06/09 09:27:02;;;;;;;4.43;2.00;;;;;;;17.06;73.86;101393.31;6214928;23;20032;-81
2022/06/09 09:29:39;;;;;;;3.45;2.10;;;;;;;16.92;73.66;101403.34;6216351;23;20086;-81
2022/06/09 09:32:18;;;;;;;2.20;2.00;;;;;;;16.91;75.85;101402.50;6215920;23;20055;-81
2022/06/09 09:34:46;;;;;;;1.65;1.50;;;;;;;17.05;76.94;101399.44;6216039;23;20010;-81
2022/06/09 09:37:40;;;;;;;4.28;2.20;;;;;;;17.13;74.18;101407.06;6215905;23;20084;-82
2022/06/09 09:40:23;;;;;;;4.00;2.42;;;;;;;16.97;75.35;101401.47;6215639;23;20012;-86
2022/06/09 09:42:51;;;;;;;5.18;2.33;;;;;;;17.06;76.65;101416.91;6215815;23;20078;-86
2022/06/09 09:45:42;;;;;;;5.03;3.10;;;;;;;17.08;76.64;101414.22;6215471;23;20062;-87
2022/06/09 09:48:33;;;;;;;5.97;3.35;;;;;;;17.07;76.17;101421.25;6213126;23;20009;-87
2022/06/09 09:51:06;;;;;;;5.45;2.70;;;;;;;17.20;77.48;101418.22;6215946;23;20096;-85
2022/06/09 09:53:50;;;;;;;4.25;2.90;;;;;;;17.36;76.16;101415.91;6215470;23;20008;-87
2022/06/09 09:56:15;;;;;;;4.70;2.90;;;;;;;17.47;74.45;101419.03;6215981;23;20008;-87
2022/06/09 09:59:03;;;;;;;2.83;2.50;;;;;;;17.63;77.15;101419.34;6215957;23;20031;-86
2022/06/09 10:08:35;;;;;;;2.72;2.13;;;;;;;17.86;77.29;101421.09;6215588;23;20000;-87
2022/06/09 10:09:53;;;;;;;4.47;2.80;;;;;;;18.45;72.97;101434.69;6215427;23;20071;-87
2022/06/09 10:12:28;;;;;;;2.70;2.50;;;;;;;18.43;74.79;101435.69;6216119;23;20015;-87
2022/06/09 10:14:56;;;;;;;6.03;3.40;;;;;;;18.43;70.76;101436.53;6214207;23;20004;-87
2022/06/09 10:17:37;;;;;;;4.50;2.78;;;;;;;18.57;74.61;101438.63;6215337;23;20263;-87
2022/06/09 10:20:24;;;;;;;2.53;2.33;;;;;;;18.78;75.02;101433.44;6215953;23;20012;-87
2022/06/09 10:23:09;;;;;;;3.63;2.60;;;;;;;19.19;72.85;101438.78;6212384;23;20024;-87
2022/06/09 10:25:59;;;;;;;3.40;2.50;;;;;;;19.49;69.93;101442.81;6216011;23;20027;-87
2022/06/09 10:28:38;;;;;;;2.95;2.53;;;;;;;19.54;71.16;101441.69;6208569;23;20071;-86
2022/06/09 10:31:52;;;;;;;3.90;2.80;;;;;;;19.41;70.92;101438.72;6215999;23;20307;-87
2022/06/09 10:34:38;;;;;;;2.55;2.35;;;;;;;19.27;72.94;101449.81;6168386;23;20005;-86
2022/06/09 10:37:15;;;;;;;2.10;2.00;;;;;;;19.23;73.49;101450.91;6214584;23;20008;-87
2022/06/09 10:40:13;;;;;;;2.30;2.03;;;;;;;19.23;74.13;101455.28;6215280;23;20018;-87
2022/06/09 10:43:09;;;;;;;2.00;1.90;;;;;;;19.22;74.37;101457.06;6213756;23;20008;-87
2022/06/09 10:45:52;;;;;;;2.25;2.05;;;;;;;19.22;74.76;101456.19;6215707;23;20011;-87
2022/06/09 10:57:31;;;;;;;2.08;1.98;;;;;;;19.49;74.84;101462.06;6214520;23;20395;-87
2022/06/09 11:00:08;;;;;;;2.47;2.28;;;;;;;19.63;73.04;101465.88;6214644;23;20000;-87
2022/06/09 11:02:34;;;;;;;1.90;1.80;;;;;;;19.65;74.43;101464.88;6214847;23;20377;-87
2022/06/09 11:04:59;;;;;;;3.60;2.53;;;;;;;19.54;71.60;101461.88;6214073;23;20000;-87
2022/06/09 11:07:43;;;;;;;2.37;2.17;;;;;;;19.59;73.06;101460.75;6214703;23;20009;-86
2022/06/09 11:10:38;;;;;;;1.85;1.75;;;;;;;19.71;72.87;101462.00;6216660;23;20314;-84
2022/06/09 11:13:04;;;;;;;;;;;;;;;19.74;72.39;101468.91;6212895;23;20015;-84
2022/06/09 11:15:56;;;;;;;4.10;2.20;;;;;;;19.88;72.58;101466.56;6215457;23;19907;-85
2022/06/09 11:18:36;;;;;;;3.80;2.45;;;;;;;20.27;71.25;101469.22;6214874;23;20326;-86
2022/06/09 11:21:26;;;;;;;3.92;2.65;;;;;;;20.48;61.66;101473.50;6215692;23;20013;-85
2022/06/09 11:24:00;;;;;;;3.05;2.10;;;;;;;20.44;66.60;101486.88;6214414;23;20028;-86
2022/06/09 11:26:47;;;;;;;2.58;2.10;;;;;;;20.48;67.86;101477.91;6215202;23;20369;-83
2022/06/09 11:29:54;;;;;;;5.10;2.10;;;;;;;20.59;67.42;101478.25;6215872;23;20032;-88
2022/06/09 11:32:57;;;;;;;4.43;2.15;;;;;;;20.21;62.08;101472.97;6214881;23;20032;-87
2022/06/09 11:35:52;;;;;;;2.28;1.85;;;;;;;19.97;67.35;101480.22;6214886;23;20019;-87
2022/06/09 11:38:42;;;;;;;2.58;1.52;;;;;;;19.90;67.17;101491.06;6215873;23;20011;-88
2022/06/09 11:41:25;;;;;;;5.07;2.05;;;;;;;19.99;66.07;101491.56;6214497;23;20008;-87
2022/06/09 11:44:01;;;;;;;5.20;2.00;;;;;;;20.11;61.22;101500.69;6215157;23;20409;-87
2022/06/09 11:46:32;;;;;;;5.43;1.85;;;;;;;20.02;61.93;101494.06;6214912;23;20024;-87
2022/06/09 11:49:18;;;;;;;4.28;1.70;;;;;;;19.90;62.25;101495.44;6214674;23;20387;-88
2022/06/09 11:51:44;;;;;;;2.60;1.60;;;;;;;19.78;65.80;101496.81;6215082;23;20012;-87
2022/06/09 11:54:52;;;;;;;1.60;1.50;;;;;;;19.71;65.30;101504.13;6215269;23;20001;-85
2022/06/09 11:57:39;;;;;;;2.75;1.50;;;;;;;19.56;65.39;101508.28;6201599;23;20012;-79
2022/06/09 12:00:20;;;;;;;1.90;1.10;;;;;;;19.49;66.14;101517.34;6215799;23;20071;-83
2022/06/09 12:02:57;;;;;;;1.13;1.02;;;;;;;19.45;64.28;101524.53;6217568;23;20062;-81
2022/06/09 12:05:49;;;;;;;1.63;1.40;;;;;;;19.37;64.71;101526.63;6217501;23;20421;-81
2022/06/09 12:08:44;;;;;;;1.35;1.23;;;;;;;19.27;63.55;101515.63;6216773;23;20008;-84
2022/06/09 12:11:14;;;;;;;3.03;1.42;;;;;;;19.26;65.12;101527.06;6206189;23;20066;-80